Time;durP1;ratioP1;P1;durP2;ratioP2;P2;SDS_P1;SDS_P2;PMS_P1;PMS_P2;Temp;Humidity;BMP_temperature;BMP_pressure;BME280_temperature;BME280_humidity;BME280_pressure;Samples;Min_cycle;Max_cycle;Signal;HPM_P1;HPM_P2
2023/12/01 00:00:24;;;;;;;67.70;29.30;;;;;;;0.72;92.97;100072.63;5056046;28;20215;-66
2023/12/01 00:02:50;;;;;;;73.07;29.67;;;;;;;0.72;92.70;100079.72;5056380;28;20187;-66
2023/12/01 00:05:17;;;;;;;75.87;28.77;;;;;;;0.70;92.78;100077.19;5055942;28;20172;-66
2023/12/01 00:07:43;;;;;;;65.57;27.93;;;;;;;0.70;92.92;100078.97;5055804;28;20207;-66
2023/12/01 00:10:11;;;;;;;65.33;27.70;;;;;;;0.70;92.47;100084.22;5056207;28;20346;-66
2023/12/01 00:12:38;;;;;;;71.40;28.50;;;;;;;0.73;93.10;100076.13;5055834;28;20191;-65
2023/12/01 00:15:06;;;;;;;73.50;28.90;;;;;;;0.72;92.81;100080.53;5054510;28;20570;-65
2023/12/01 00:17:33;;;;;;;66.70;25.97;;;;;;;0.71;92.85;100080.66;5055931;28;20194;-66
2023/12/01 00:20:00;;;;;;;79.87;29.03;;;;;;;0.71;92.98;100078.03;5055952;28;20191;-66
2023/12/01 00:22:26;;;;;;;72.47;29.43;;;;;;;0.73;93.04;100078.75;5055919;28;20187;-66
2023/12/01 00:24:53;;;;;;;74.53;29.00;;;;;;;0.75;92.67;100085.59;5055866;28;20209;-66
2023/12/01 00:27:19;;;;;;;81.17;30.33;;;;;;;0.75;92.53;100088.22;5056105;28;20195;-66
2023/12/01 00:29:46;;;;;;;74.53;29.43;;;;;;;0.70;92.64;100087.69;5055399;28;20211;-66
2023/12/01 00:32:13;;;;;;;80.03;31.30;;;;;;;0.76;92.38;100100.44;5054191;28;20187;-66
2023/12/01 00:34:40;;;;;;;69.97;28.40;;;;;;;0.73;92.33;100095.38;5055407;28;20241;-66
2023/12/01 00:37:08;;;;;;;67.77;28.53;;;;;;;0.74;92.42;100090.97;5055375;28;20274;-66
2023/12/01 00:39:34;;;;;;;57.50;24.67;;;;;;;0.75;92.45;100093.50;5053999;28;20241;-66
2023/12/01 00:42:01;;;;;;;63.97;26.40;;;;;;;0.78;92.49;100097.69;5055304;28;20215;-66
2023/12/01 00:44:27;;;;;;;63.80;26.13;;;;;;;0.79;92.57;100097.59;5053963;28;20202;-66
2023/12/01 00:46:54;;;;;;;70.23;28.03;;;;;;;0.81;92.49;100105.38;5053922;28;20282;-66
2023/12/01 00:49:20;;;;;;;69.07;26.93;;;;;;;0.82;92.33;100099.16;5054998;28;20219;-66
2023/12/01 00:51:47;;;;;;;70.90;28.43;;;;;;;0.82;92.40;100099.16;5055093;28;20590;-66
2023/12/01 00:54:13;;;;;;;81.30;28.00;;;;;;;0.84;92.11;100100.75;5055254;28;20233;-66
2023/12/01 00:56:40;;;;;;;62.13;26.67;;;;;;;0.82;92.24;100107.91;5055041;28;20183;-66
2023/12/01 00:59:09;;;;;;;65.90;25.33;;;;;;;0.83;92.31;100106.97;5055389;28;20299;-66
2023/12/01 01:01:35;;;;;;;63.60;25.63;;;;;;;0.84;92.19;100106.03;5054888;28;20188;-66
2023/12/01 01:04:02;;;;;;;62.23;24.27;;;;;;;0.84;92.12;100108.66;5054588;28;20182;-69
2023/12/01 01:06:29;;;;;;;67.10;25.47;;;;;;;0.84;92.10;100111.28;5054163;28;20179;-69
2023/12/01 01:08:56;;;;;;;64.03;24.60;;;;;;;0.84;92.10;100113.06;5054913;28;20304;-70
2023/12/01 01:11:22;;;;;;;71.67;28.33;;;;;;;0.86;91.99;100127.78;5053645;28;20176;-69
2023/12/01 01:13:49;;;;;;;64.23;27.13;;;;;;;0.87;92.02;100126.00;5054982;28;20187;-69
2023/12/01 01:16:15;;;;;;;64.07;25.80;;;;;;;0.86;91.97;100129.56;5054571;28;20194;-69
2023/12/01 01:18:42;;;;;;;71.03;26.20;;;;;;;0.86;91.99;100124.31;5053387;28;20223;-69
2023/12/01 01:21:09;;;;;;;66.23;27.43;;;;;;;0.85;92.01;100126.09;5053275;28;20621;-69
2023/12/01 01:23:35;;;;;;;87.00;31.03;;;;;;;0.83;91.92;100130.66;5054752;28;20655;-70
2023/12/01 01:26:02;;;;;;;69.37;30.13;;;;;;;0.88;91.77;100128.53;5054477;28;20183;-70
2023/12/01 01:28:29;;;;;;;63.10;28.53;;;;;;;0.89;91.61;100126.75;5053018;28;20245;-69
2023/12/01 01:30:57;;;;;;;75.43;31.73;;;;;;;0.85;91.05;100126.09;5054306;28;20195;-69
2023/12/01 01:33:24;;;;;;;77.90;28.97;;;;;;;0.83;90.94;100138.53;5054273;28;20672;-69
2023/12/01 01:35:50;;;;;;;71.93;28.80;;;;;;;0.79;91.50;100131.81;5052994;28;20191;-69
2023/12/01 01:38:17;;;;;;;75.13;28.13;;;;;;;0.82;91.46;100139.47;5053144;28;20253;-69
2023/12/01 01:40:43;;;;;;;65.73;26.93;;;;;;;0.83;91.37;100133.28;5054151;28;20198;-69
2023/12/01 01:43:18;;;;;;;67.57;27.20;;;;;;;0.86;91.03;100143.59;5054133;28;20194;-69
2023/12/01 01:45:45;;;;;;;72.73;25.70;;;;;;;0.77;90.36;100136.31;5054117;28;20171;-69
2023/12/01 01:48:11;;;;;;;62.00;23.87;;;;;;;0.79;90.30;100137.06;5054276;28;20691;-69
2023/12/01 01:50:38;;;;;;;54.43;22.40;;;;;;;0.74;90.65;100140.94;5054251;28;20678;-69
2023/12/01 01:53:04;;;;;;;49.80;21.53;;;;;;;0.80;90.49;100138.75;5054022;28;20191;-70
2023/12/01 01:55:31;;;;;;;58.27;24.10;;;;;;;0.76;89.46;100136.44;5052884;28;20579;-70
2023/12/01 01:57:58;;;;;;;63.40;25.37;;;;;;;0.75;89.12;100146.09;5052915;28;20212;-69
2023/12/01 02:00:24;;;;;;;53.60;23.67;;;;;;;0.77;89.02;100138.94;5052521;28;20222;-70
2023/12/01 02:02:51;;;;;;;62.60;24.77;;;;;;;0.72;88.70;100141.03;5053823;28;20183;-69
2023/12/01 02:05:17;;;;;;;54.13;23.47;;;;;;;0.75;88.46;100137.38;5052479;28;20189;-69
2023/12/01 02:07:44;;;;;;;58.10;24.90;;;;;;;0.72;88.00;100145.47;5054174;28;20246;-69
2023/12/01 02:10:15;;;;;;;55.30;23.73;;;;;;;0.68;88.21;100147.44;5053558;28;20214;-70
2023/12/01 02:12:44;;;;;;;56.90;23.57;;;;;;;0.70;88.24;100150.00;5052400;28;20187;-70
2023/12/01 02:15:11;;;;;;;55.27;23.30;;;;;;;0.67;88.29;100145.78;5053469;28;20183;-70
2023/12/01 02:17:38;;;;;;;47.57;22.00;;;;;;;0.72;87.92;100141.03;5052642;28;20200;-69
2023/12/01 02:20:06;;;;;;;52.40;22.17;;;;;;;0.71;87.31;100143.78;5053708;28;20190;-69
2023/12/01 02:22:33;;;;;;;44.83;21.87;;;;;;;0.77;86.76;100141.56;5052170;28;20191;-69
2023/12/01 02:25:00;;;;;;;61.33;23.33;;;;;;;0.72;87.21;100148.94;5052133;28;20221;-70
2023/12/01 02:27:26;;;;;;;51.47;22.67;;;;;;;0.73;87.25;100153.25;5051988;28;20659;-69
2023/12/01 02:29:53;;;;;;;59.57;23.47;;;;;;;0.68;87.05;100146.63;5053501;28;20203;-69
2023/12/01 02:32:19;;;;;;;51.00;22.73;;;;;;;0.68;87.34;100155.34;5052042;28;20249;-69
2023/12/01 02:34:46;;;;;;;53.00;23.23;;;;;;;0.72;86.89;100150.75;5053514;28;20523;-69
2023/12/01 02:37:13;;;;;;;52.50;23.73;;;;;;;0.67;87.15;100158.09;5053488;28;20191;-69
2023/12/01 02:39:39;;;;;;;43.47;21.30;;;;;;;0.78;86.71;100150.31;5054235;28;20203;-69
2023/12/01 02:42:06;;;;;;;47.27;21.67;;;;;;;0.70;87.12;100155.25;5053653;28;20233;-69
2023/12/01 02:44:32;;;;;;;50.43;22.00;;;;;;;0.64;87.58;100153.88;5053154;28;20663;-69
2023/12/01 02:46:59;;;;;;;52.33;21.93;;;;;;;0.62;87.55;100157.56;5051870;28;20191;-69
2023/12/01 02:49:25;;;;;;;48.53;20.73;;;;;;;0.65;87.56;100155.56;5052976;28;20211;-69
2023/12/01 02:51:52;;;;;;;38.53;19.93;;;;;;;0.73;87.76;100155.88;5053074;28;20692;-69
2023/12/01 02:54:18;;;;;;;45.00;21.27;;;;;;;0.70;87.52;100150.84;5053310;28;20193;-69
2023/12/01 02:56:45;;;;;;;44.03;20.13;;;;;;;0.69;88.22;100146.50;5051784;28;20242;-69
2023/12/01 02:59:11;;;;;;;44.93;21.43;;;;;;;0.67;88.02;100150.19;5053193;28;20199;-69
2023/12/01 03:01:37;;;;;;;46.30;21.13;;;;;;;0.66;88.11;100151.13;5051942;28;20210;-69
2023/12/01 03:04:04;;;;;;;42.17;20.27;;;;;;;0.65;88.15;100141.56;5052996;28;20215;-69
2023/12/01 03:06:31;;;;;;;40.47;18.30;;;;;;;0.68;88.18;100149.25;5053029;28;20201;-69
2023/12/01 03:08:57;;;;;;;41.07;19.83;;;;;;;0.69;88.17;100145.66;5052815;28;20218;-69
2023/12/01 03:11:24;;;;;;;45.93;19.47;;;;;;;0.72;88.34;100143.66;5053177;28;20190;-69
2023/12/01 03:13:50;;;;;;;44.30;21.10;;;;;;;0.75;88.45;100140.00;5051876;28;20618;-71
2023/12/01 03:16:17;;;;;;;46.10;21.53;;;;;;;0.77;88.13;100141.56;5052851;28;20180;-70
2023/12/01 03:18:44;;;;;;;45.50;20.20;;;;;;;0.79;87.88;100142.31;5052775;28;20205;-69
2023/12/01 03:21:12;;;;;;;47.03;20.93;;;;;;;0.79;88.22;100138.84;5051758;28;20202;-70
2023/12/01 03:23:40;;;;;;;59.43;21.57;;;;;;;0.84;88.13;100149.91;5053575;28;20183;-70
2023/12/01 03:26:08;;;;;;;53.60;22.93;;;;;;;0.79;87.71;100141.47;5052998;28;20652;-70
2023/12/01 03:28:34;;;;;;;51.97;22.50;;;;;;;0.84;87.91;100145.50;5054965;28;20208;-70
2023/12/01 03:31:02;;;;;;;45.53;20.33;;;;;;;0.79;88.08;100154.63;5056964;28;20179;-69
2023/12/01 03:33:30;;;;;;;52.90;23.60;;;;;;;0.81;88.02;100158.84;5057128;28;20225;-70
2023/12/01 03:35:57;;;;;;;51.57;22.20;;;;;;;0.78;88.09;100156.41;5056805;28;20195;-70
2023/12/01 03:38:23;;;;;;;62.17;23.47;;;;;;;0.74;88.37;100157.56;5056426;28;20214;-70
2023/12/01 03:40:50;;;;;;;58.60;23.60;;;;;;;0.78;88.51;100166.09;5056682;28;20249;-70
2023/12/01 03:43:16;;;;;;;61.70;23.63;;;;;;;0.77;88.23;100170.50;5056877;28;20195;-70
2023/12/01 03:45:43;;;;;;;61.13;23.67;;;;;;;0.80;88.05;100167.69;5056334;28;20196;-70
2023/12/01 03:48:09;;;;;;;54.53;24.50;;;;;;;0.74;88.44;100164.63;5056259;28;20215;-69
2023/12/01 03:50:36;;;;;;;54.83;23.30;;;;;;;0.67;88.76;100176.50;5054924;28;20585;-69
2023/12/01 03:53:02;;;;;;;59.97;23.67;;;;;;;0.75;88.81;100174.19;5056201;28;20186;-69
2023/12/01 03:55:29;;;;;;;46.27;21.30;;;;;;;0.79;88.30;100176.53;5056978;28;20530;-70
2023/12/01 03:57:55;;;;;;;51.03;21.53;;;;;;;0.68;88.60;100188.72;5056618;28;20564;-69
2023/12/01 04:00:22;;;;;;;54.87;23.10;;;;;;;0.66;88.59;100174.81;5054871;28;20214;-69
2023/12/01 04:02:49;;;;;;;52.20;21.07;;;;;;;0.67;88.68;100173.88;5054830;28;20188;-69
2023/12/01 04:05:17;;;;;;;46.90;19.93;;;;;;;0.62;88.63;100183.84;5056252;28;20285;-69
2023/12/01 04:07:51;;;;;;;48.87;21.03;;;;;;;0.60;88.92;100175.22;5055223;28;20215;-69
2023/12/01 04:10:23;;;;;;;47.27;21.57;;;;;;;0.62;88.68;100175.97;5056152;28;20617;-69
2023/12/01 04:12:49;;;;;;;45.73;20.50;;;;;;;0.56;88.65;100181.63;5056381;28;20187;-70
2023/12/01 04:15:20;;;;;;;46.10;20.60;;;;;;;0.58;88.07;100193.75;5055825;28;20262;-70
2023/12/01 04:17:48;;;;;;;50.13;20.20;;;;;;;0.58;88.04;100196.38;5055527;28;20210;-69
2023/12/01 04:20:25;;;;;;;47.53;19.80;;;;;;;0.56;87.78;100197.41;5054449;28;20191;-70
2023/12/01 04:22:58;;;;;;;41.40;18.73;;;;;;;0.59;87.55;100195.44;5055983;28;20203;-70
2023/12/01 04:25:25;;;;;;;49.20;18.50;;;;;;;0.52;87.63;100204.66;5055950;28;20233;-69
2023/12/01 04:27:52;;;;;;;45.77;20.10;;;;;;;0.47;87.91;100208.53;5055724;28;20207;-69
2023/12/01 04:30:20;;;;;;;41.17;19.00;;;;;;;0.49;87.78;100206.66;5055386;28;20246;-69
2023/12/01 04:32:54;;;;;;;47.03;19.03;;;;;;;0.40;88.08;100205.47;5055711;28;20214;-69
2023/12/01 04:35:25;;;;;;;38.87;18.57;;;;;;;0.38;88.12;100215.25;5056293;28;20597;-70
2023/12/01 04:37:53;;;;;;;44.60;19.00;;;;;;;0.46;87.87;100215.59;5055333;28;20207;-70
2023/12/01 04:40:19;;;;;;;41.90;19.67;;;;;;;0.37;87.93;100213.56;5054204;28;20270;-70
2023/12/01 04:42:47;;;;;;;55.33;20.43;;;;;;;0.27;88.26;100221.19;5055836;28;20246;-70
2023/12/01 04:45:19;;;;;;;50.20;18.97;;;;;;;0.24;88.37;100224.03;5055326;28;20273;-70
2023/12/01 04:47:52;;;;;;;46.20;19.30;;;;;;;0.25;88.12;100209.09;5055668;28;20224;-69
2023/12/01 04:50:24;;;;;;;46.30;19.90;;;;;;;0.25;88.54;100211.72;5055104;28;20655;-69
2023/12/01 04:52:58;;;;;;;48.53;19.27;;;;;;;0.31;88.63;100220.03;5055379;28;20528;-69
2023/12/01 04:55:26;;;;;;;54.13;20.23;;;;;;;0.25;88.66;100216.97;5055305;28;20189;-69
2023/12/01 04:57:58;;;;;;;57.37;21.80;;;;;;;0.28;88.37;100222.88;5054982;28;20573;-69
2023/12/01 05:00:26;;;;;;;48.50;20.17;;;;;;;0.22;88.61;100225.03;5055256;28;20203;-70
2023/12/01 05:02:55;;;;;;;54.37;21.53;;;;;;;0.25;88.72;100230.13;5055265;28;20191;-70
2023/12/01 05:05:27;;;;;;;53.47;21.03;;;;;;;0.23;88.76;100224.97;5055150;28;20535;-70
2023/12/01 05:07:57;;;;;;;48.13;19.90;;;;;;;0.29;88.58;100234.25;5054753;28;20207;-69
2023/12/01 05:10:30;;;;;;;54.63;19.93;;;;;;;0.23;89.11;100232.84;5055269;28;20207;-69
2023/12/01 05:12:59;;;;;;;47.27;20.37;;;;;;;0.24;88.67;100239.78;5054942;28;20183;-70
2023/12/01 05:15:28;;;;;;;43.70;19.37;;;;;;;0.25;88.67;100241.50;5054946;28;20597;-70
2023/12/01 05:18:10;;;;;;;45.30;19.77;;;;;;;0.22;88.87;100244.28;5054717;28;20248;-70
2023/12/01 05:20:38;;;;;;;51.50;20.87;;;;;;;0.34;88.61;100240.88;5054887;28;20261;-70
2023/12/01 05:23:10;;;;;;;63.53;21.97;;;;;;;0.33;88.35;100238.34;5054784;28;20191;-70
2023/12/01 05:25:41;;;;;;;49.23;21.43;;;;;;;0.34;87.94;100247.94;5054381;28;20508;-70
2023/12/01 05:28:09;;;;;;;51.33;21.63;;;;;;;0.42;87.83;100248.28;5054306;28;20207;-70
2023/12/01 05:30:38;;;;;;;54.83;21.40;;;;;;;0.35;87.87;100249.59;5054579;28;20290;-70
2023/12/01 05:33:05;;;;;;;46.40;18.97;;;;;;;0.30;87.94;100249.91;5054324;28;20278;-70
2023/12/01 05:35:33;;;;;;;48.40;20.57;;;;;;;0.47;88.05;100247.03;5054245;28;20206;-70
2023/12/01 05:38:00;;;;;;;62.80;22.10;;;;;;;0.33;88.11;100249.72;5054384;28;20690;-70
2023/12/01 05:40:30;;;;;;;45.03;20.33;;;;;;;0.35;88.33;100246.97;5054183;28;20187;-70
2023/12/01 05:42:58;;;;;;;48.03;19.97;;;;;;;0.38;88.23;100258.13;5054129;28;20195;-70
2023/12/01 05:45:29;;;;;;;53.03;21.53;;;;;;;0.34;88.63;100255.81;5054092;28;20222;-70
2023/12/01 05:47:56;;;;;;;49.87;20.37;;;;;;;0.43;88.34;100260.47;5054202;28;20214;-69
2023/12/01 05:50:28;;;;;;;45.33;20.50;;;;;;;0.45;88.23;100261.22;5053952;28;20214;-70
2023/12/01 05:52:57;;;;;;;60.80;20.63;;;;;;;0.41;88.23;100268.47;5054242;28;20207;-70
2023/12/01 05:55:26;;;;;;;50.20;20.83;;;;;;;0.34;88.17;100272.41;5054104;28;20528;-69
2023/12/01 05:57:58;;;;;;;46.63;21.03;;;;;;;0.45;88.15;100269.97;5053972;28;20207;-69
2023/12/01 06:00:29;;;;;;;42.93;19.67;;;;;;;0.36;88.30;100280.22;5054351;28;20189;-69
2023/12/01 06:03:01;;;;;;;56.80;20.13;;;;;;;0.39;88.22;100272.13;5054140;28;20171;-70
2023/12/01 06:05:28;;;;;;;47.23;20.47;;;;;;;0.44;88.00;100272.69;5054409;28;20210;-70
2023/12/01 06:07:57;;;;;;;45.40;21.63;;;;;;;0.42;88.52;100274.59;5053874;28;20206;-69
2023/12/01 06:10:26;;;;;;;52.03;21.30;;;;;;;0.35;88.28;100279.38;5053861;28;20210;-69
2023/12/01 06:12:53;;;;;;;50.43;19.73;;;;;;;0.29;88.37;100284.19;5053616;28;20187;-69
2023/12/01 06:15:20;;;;;;;46.33;19.63;;;;;;;0.25;88.76;100287.97;5053592;28;20206;-69
2023/12/01 06:17:52;;;;;;;36.60;18.77;;;;;;;0.31;88.60;100287.53;5053469;28;20248;-69
2023/12/01 06:20:22;;;;;;;56.77;19.80;;;;;;;0.33;88.71;100296.19;5053729;28;20577;-69
2023/12/01 06:22:56;;;;;;;45.63;19.67;;;;;;;0.23;88.72;100301.19;5053422;28;20635;-69
2023/12/01 06:25:27;;;;;;;52.07;20.37;;;;;;;0.24;88.73;100299.41;5053405;28;20180;-69
2023/12/01 06:27:58;;;;;;;45.00;19.17;;;;;;;0.22;88.45;100309.16;5053569;28;20297;-69
2023/12/01 06:30:26;;;;;;;42.73;19.03;;;;;;;0.23;88.28;100310.84;5053524;28;20693;-69
2023/12/01 06:32:53;;;;;;;44.20;18.97;;;;;;;0.21;88.55;100315.38;5053545;28;20198;-69
2023/12/01 06:35:21;;;;;;;43.77;17.97;;;;;;;0.25;88.05;100315.09;5053235;28;20222;-69
2023/12/01 06:37:48;;;;;;;41.50;17.77;;;;;;;0.14;88.41;100311.41;5053142;28;20203;-69
2023/12/01 06:40:18;;;;;;;59.17;20.30;;;;;;;0.23;87.78;100321.38;5053420;28;20188;-69
2023/12/01 06:42:52;;;;;;;45.90;20.00;;;;;;;0.16;88.07;100320.06;5053462;28;20631;-69
2023/12/01 06:45:21;;;;;;;63.47;20.90;;;;;;;0.15;88.02;100324.47;5053424;28;20258;-69
2023/12/01 06:47:52;;;;;;;66.47;21.40;;;;;;;0.03;87.47;100329.66;5053030;28;20325;-69
2023/12/01 06:50:20;;;;;;;64.33;22.17;;;;;;;-0.01;87.88;100332.47;5053544;28;20233;-69
2023/12/01 06:52:49;;;;;;;69.27;22.10;;;;;;;-0.03;88.02;100339.59;5053365;28;20237;-69
2023/12/01 06:55:16;;;;;;;62.73;22.57;;;;;;;-0.01;87.79;100343.00;5052970;28;20187;-69
2023/12/01 06:57:44;;;;;;;71.67;21.93;;;;;;;0.00;87.88;100342.03;5051689;28;20202;-69
2023/12/01 07:00:29;;;;;;;63.03;23.40;;;;;;;0.03;88.17;100345.41;5052928;28;20188;-69
2023/12/01 07:03:07;;;;;;;63.63;22.20;;;;;;;-0.05;88.58;100343.28;5054641;28;20183;-69
2023/12/01 07:05:35;;;;;;;64.30;23.47;;;;;;;-0.04;88.31;100350.19;5057352;28;20303;-69
2023/12/01 07:08:05;;;;;;;55.97;22.10;;;;;;;-0.13;88.99;100342.91;5056924;28;20203;-69
2023/12/01 07:10:34;;;;;;;51.27;20.53;;;;;;;-0.16;88.80;100350.94;5056928;28;20215;-69
2023/12/01 07:13:01;;;;;;;52.00;19.60;;;;;;;-0.11;88.85;100357.63;5056880;28;20273;-70
2023/12/01 07:15:29;;;;;;;62.50;22.10;;;;;;;-0.13;89.17;100356.84;5056961;28;20237;-70
2023/12/01 07:17:56;;;;;;;62.00;23.87;;;;;;;-0.13;89.21;100363.91;5056781;28;20237;-69
2023/12/01 07:20:23;;;;;;;58.20;23.57;;;;;;;-0.09;89.54;100358.38;5056821;28;20235;-69
2023/12/01 07:22:52;;;;;;;56.47;22.67;;;;;;;-0.15;89.30;100364.00;5056790;28;20184;-69
2023/12/01 07:25:23;;;;;;;56.97;21.87;;;;;;;-0.11;89.16;100364.66;5057292;28;20194;-69
2023/12/01 07:27:57;;;;;;;63.67;24.17;;;;;;;-0.05;89.04;100366.91;5057113;28;20243;-69
2023/12/01 07:30:27;;;;;;;59.00;20.57;;;;;;;-0.06;88.87;100362.59;5056586;28;20245;-69
2023/12/01 07:32:55;;;;;;;54.90;21.87;;;;;;;-0.01;88.89;100361.38;5056658;28;20662;-70
2023/12/01 07:35:21;;;;;;;55.20;20.73;;;;;;;-0.03;88.85;100363.25;5056495;28;20222;-70
2023/12/01 07:37:51;;;;;;;59.03;23.00;;;;;;;-0.05;88.70;100372.16;5056740;28;20207;-69
2023/12/01 07:40:23;;;;;;;56.37;21.73;;;;;;;-0.01;88.55;100376.28;5056995;28;20187;-71
2023/12/01 07:42:51;;;;;;;56.17;20.13;;;;;;;-0.06;88.65;100378.34;5056702;28;20186;-70
2023/12/01 07:45:19;;;;;;;53.50;20.40;;;;;;;-0.04;88.49;100373.84;5056558;28;20202;-70
2023/12/01 07:47:47;;;;;;;52.13;20.50;;;;;;;-0.06;88.89;100373.09;5056224;28;20265;-69
2023/12/01 07:50:14;;;;;;;51.03;21.83;;;;;;;-0.03;88.43;100376.38;5056243;28;20203;-69
2023/12/01 07:52:42;;;;;;;44.10;20.17;;;;;;;0.02;88.43;100376.09;5056215;28;20210;-69
2023/12/01 07:55:09;;;;;;;52.20;21.80;;;;;;;-0.04;88.30;100377.31;5056449;28;20524;-70
2023/12/01 07:57:37;;;;;;;47.93;20.47;;;;;;;-0.11;88.42;100375.16;5056344;28;20193;-69
2023/12/01 08:00:05;;;;;;;53.27;22.57;;;;;;;-0.15;88.57;100374.50;5055978;28;20202;-70
2023/12/01 08:02:32;;;;;;;50.33;21.93;;;;;;;-0.08;88.42;100375.81;5055976;28;20179;-70
2023/12/01 08:04:59;;;;;;;51.20;20.40;;;;;;;-0.13;88.28;100374.41;5056344;28;20206;-70
2023/12/01 08:07:26;;;;;;;60.60;21.97;;;;;;;-0.15;88.29;100376.28;5055875;28;20197;-71
2023/12/01 08:09:53;;;;;;;42.30;19.77;;;;;;;-0.08;88.35;100381.06;5055810;28;20193;-72
2023/12/01 08:12:24;;;;;;;46.10;19.87;;;;;;;-0.11;88.89;100375.16;5056454;28;20171;-71
2023/12/01 08:14:50;;;;;;;47.30;19.90;;;;;;;-0.09;88.90;100382.03;5055622;28;20183;-71
2023/12/01 08:17:16;;;;;;;41.53;18.57;;;;;;;-0.17;88.64;100381.63;5055656;28;20671;-71
2023/12/01 08:19:43;;;;;;;38.90;19.67;;;;;;;-0.02;88.11;100378.06;5055657;28;20265;-71
2023/12/01 08:22:09;;;;;;;43.87;18.40;;;;;;;-0.04;87.82;100379.94;5055889;28;20219;-71
2023/12/01 08:24:38;;;;;;;47.90;19.83;;;;;;;-0.05;87.59;100390.56;5055751;28;20210;-71
2023/12/01 08:27:07;;;;;;;52.33;18.77;;;;;;;-0.14;87.57;100385.84;5055935;28;20196;-71
2023/12/01 08:29:34;;;;;;;46.07;20.00;;;;;;;-0.07;87.48;100392.41;5055482;28;20211;-71
2023/12/01 08:32:03;;;;;;;54.63;21.60;;;;;;;-0.06;87.60;100389.72;5055375;28;20207;-71
2023/12/01 08:34:30;;;;;;;46.37;20.50;;;;;;;-0.10;87.78;100393.47;5055478;28;20562;-71
2023/12/01 08:36:56;;;;;;;54.03;21.53;;;;;;;-0.10;88.16;100403.97;5055394;28;20599;-71
2023/12/01 08:39:23;;;;;;;52.03;21.70;;;;;;;-0.07;88.08;100398.53;5055354;28;20206;-71
2023/12/01 08:41:53;;;;;;;49.23;21.00;;;;;;;0.05;87.77;100396.06;5055286;28;20187;-71
2023/12/01 08:44:20;;;;;;;52.37;21.53;;;;;;;0.02;87.52;100397.13;5055599;28;20233;-71
2023/12/01 08:46:46;;;;;;;49.37;22.63;;;;;;;0.00;87.52;100401.66;5055207;28;20191;-71
2023/12/01 08:49:13;;;;;;;48.47;21.03;;;;;;;0.11;87.32;100398.34;5055139;28;20257;-71
2023/12/01 08:51:39;;;;;;;41.47;19.77;;;;;;;-0.04;87.31;100405.38;5055336;28;20257;-71
2023/12/01 08:54:06;;;;;;;53.87;21.67;;;;;;;0.05;87.08;100409.22;5055430;28;20578;-72
2023/12/01 08:56:35;;;;;;;50.87;20.27;;;;;;;-0.04;87.44;100414.09;5055001;28;20211;-71
2023/12/01 08:59:02;;;;;;;49.57;21.00;;;;;;;-0.01;87.61;100413.94;5054896;28;20637;-71
2023/12/01 09:01:28;;;;;;;47.57;18.80;;;;;;;-0.04;87.35;100419.34;5055198;28;20198;-71
2023/12/01 09:03:55;;;;;;;53.23;20.17;;;;;;;-0.02;87.39;100421.91;5055689;28;20744;-71
2023/12/01 09:06:21;;;;;;;45.63;19.63;;;;;;;-0.02;87.65;100428.00;5055425;28;20249;-71
2023/12/01 09:08:48;;;;;;;47.77;20.77;;;;;;;-0.05;87.94;100432.59;5055012;28;20218;-71
2023/12/01 09:11:14;;;;;;;52.70;20.20;;;;;;;-0.07;87.81;100437.09;5055415;28;20218;-71
2023/12/01 09:13:41;;;;;;;46.70;19.73;;;;;;;-0.10;87.73;100439.91;5054718;28;20183;-71
2023/12/01 09:16:08;;;;;;;47.97;18.73;;;;;;;-0.09;87.41;100437.19;5054928;28;20191;-71
2023/12/01 09:18:34;;;;;;;41.37;16.93;;;;;;;-0.14;87.30;100441.88;5054690;28;20222;-70
2023/12/01 09:21:01;;;;;;;43.27;19.17;;;;;;;-0.13;87.33;100438.28;5054515;28;20273;-71
2023/12/01 09:23:28;;;;;;;46.23;21.13;;;;;;;-0.07;87.00;100445.81;5054525;28;20219;-71
2023/12/01 09:25:55;;;;;;;50.03;18.63;;;;;;;-0.01;87.32;100444.63;5053926;28;20244;-71
2023/12/01 09:28:23;;;;;;;43.17;19.30;;;;;;;-0.03;87.00;100441.22;5053096;28;20631;-71
2023/12/01 09:30:51;;;;;;;43.77;18.80;;;;;;;-0.08;86.76;100445.91;5054578;28;20195;-71
2023/12/01 09:33:17;;;;;;;40.90;18.30;;;;;;;-0.10;86.72;100442.53;5054606;28;20547;-71
2023/12/01 09:35:44;;;;;;;42.73;18.40;;;;;;;-0.17;87.00;100443.84;5054882;28;20187;-71
2023/12/01 09:38:24;;;;;;;38.93;17.97;;;;;;;-0.21;86.89;100451.03;5054771;28;20546;-70
2023/12/01 09:40:51;;;;;;;34.97;17.77;;;;;;;-0.23;87.39;100455.53;5054474;28;20197;-70
2023/12/01 09:43:18;;;;;;;33.60;18.50;;;;;;;-0.17;87.34;100460.41;5054131;28;20179;-70
2023/12/01 09:45:45;;;;;;;41.07;18.47;;;;;;;-0.12;86.58;100460.16;5054374;28;20612;-72
2023/12/01 09:48:14;;;;;;;37.07;18.47;;;;;;;-0.23;85.86;100466.06;5054153;28;20211;-70
2023/12/01 09:50:40;;;;;;;48.67;19.37;;;;;;;-0.26;86.61;100468.88;5053938;28;20555;-70
2023/12/01 09:53:07;;;;;;;41.40;19.00;;;;;;;-0.12;86.29;100466.25;5054489;28;20187;-70
2023/12/01 09:55:35;;;;;;;41.40;19.33;;;;;;;-0.24;86.38;100481.88;5054172;28;20233;-70
2023/12/01 09:58:01;;;;;;;45.77;19.50;;;;;;;-0.21;86.59;100477.28;5054168;28;20203;-70
2023/12/01 10:00:28;;;;;;;44.37;18.43;;;;;;;-0.23;86.56;100473.94;5054385;28;20191;-72
2023/12/01 10:02:54;;;;;;;40.87;18.23;;;;;;;-0.21;86.71;100477.28;5053797;28;20735;-71
2023/12/01 10:05:21;;;;;;;47.77;18.60;;;;;;;-0.23;86.69;100471.31;5053709;28;20192;-71
2023/12/01 10:07:49;;;;;;;45.33;18.43;;;;;;;-0.19;86.73;100471.97;5053647;28;20213;-71
2023/12/01 10:10:20;;;;;;;39.70;17.97;;;;;;;-0.23;86.60;100476.56;5054150;28;20195;-71
2023/12/01 10:12:58;;;;;;;37.80;18.43;;;;;;;-0.18;86.62;100469.25;5053951;28;20172;-71
2023/12/01 10:15:26;;;;;;;42.13;17.07;;;;;;;-0.19;86.88;100474.59;5053814;28;20655;-71
2023/12/01 10:18:15;;;;;;;37.30;16.83;;;;;;;-0.20;86.50;100471.13;5053582;28;20222;-71
2023/12/01 10:21:02;;;;;;;37.73;16.67;;;;;;;-0.16;85.92;100463.91;5053537;28;20548;-71
2023/12/01 10:23:32;;;;;;;42.23;18.03;;;;;;;-0.15;86.39;100470.84;5053980;28;20186;-71
2023/12/01 10:25:59;;;;;;;55.93;18.10;;;;;;;-0.19;86.34;100467.56;5053655;28;20241;-71
2023/12/01 10:28:39;;;;;;;39.03;18.67;;;;;;;-0.15;86.54;100470.84;5053768;28;20218;-71
2023/12/01 10:31:07;;;;;;;42.13;19.43;;;;;;;-0.17;86.41;100460.41;5053744;28;20203;-71
2023/12/01 10:33:35;;;;;;;45.40;19.40;;;;;;;-0.12;86.77;100462.78;5053833;28;20214;-71
2023/12/01 10:36:08;;;;;;;41.70;19.27;;;;;;;-0.20;86.97;100457.13;5053246;28;20189;-71
2023/12/01 10:38:38;;;;;;;46.80;19.70;;;;;;;-0.31;86.62;100459.56;5052646;28;20656;-70
2023/12/01 10:41:06;;;;;;;41.43;18.27;;;;;;;-0.27;86.93;100450.56;5053226;28;20623;-70
2023/12/01 10:43:34;;;;;;;42.30;19.13;;;;;;;-0.32;87.34;100449.97;5053739;28;20634;-71
2023/12/01 10:46:05;;;;;;;50.17;20.00;;;;;;;-0.29;87.15;100455.88;5053522;28;20172;-70
2023/12/01 10:48:33;;;;;;;51.23;20.07;;;;;;;-0.27;87.60;100450.56;5053234;28;20238;-70
2023/12/01 10:51:03;;;;;;;37.70;18.13;;;;;;;-0.27;87.37;100448.78;5053722;28;20231;-70
2023/12/01 10:53:30;;;;;;;37.07;16.73;;;;;;;-0.20;87.29;100452.72;5053383;28;20252;-70
2023/12/01 10:56:01;;;;;;;40.17;17.13;;;;;;;-0.17;87.71;100447.28;5053049;28;20191;-71
2023/12/01 10:58:32;;;;;;;37.77;18.33;;;;;;;0.00;87.14;100447.13;5053352;28;20586;-70
2023/12/01 11:01:02;;;;;;;40.63;18.40;;;;;;;-0.11;86.75;100457.44;5053026;28;20175;-71
2023/12/01 11:03:29;;;;;;;47.37;18.67;;;;;;;-0.08;86.51;100452.00;5051835;28;20194;-71
2023/12/01 11:06:02;;;;;;;39.43;18.07;;;;;;;-0.17;86.61;100455.16;5053152;28;20191;-71
2023/12/01 11:08:53;;;;;;;46.10;18.90;;;;;;;-0.08;85.85;100448.53;5053167;28;20218;-72
2023/12/01 11:11:52;;;;;;;41.80;18.13;;;;;;;-0.15;86.24;100447.22;5052827;28;20238;-71
2023/12/01 11:14:25;;;;;;;35.43;17.57;;;;;;;-0.17;86.45;100446.47;5052883;28;20277;-70
2023/12/01 11:16:53;;;;;;;38.27;17.27;;;;;;;-0.08;86.27;100443.28;5052739;28;20612;-70
2023/12/01 11:19:23;;;;;;;45.50;17.47;;;;;;;-0.14;86.19;100438.41;5052998;28;20208;-71